createdAt,value
2023-11-24T00:00:51.116Z,1.90
2023-11-24T00:03:41.839Z,2.20
2023-11-24T00:06:13.966Z,2.60
2023-11-24T00:08:45.521Z,2.10
2023-11-24T00:11:17.082Z,3.00
2023-11-24T00:13:48.646Z,2.90
2023-11-24T00:16:22.192Z,2.40
2023-11-24T00:18:53.955Z,1.70
2023-11-24T00:21:26.119Z,2.20
2023-11-24T00:23:57.781Z,2.10
2023-11-24T00:26:29.285Z,2.90
2023-11-24T00:29:01.974Z,2.60
2023-11-24T00:31:33.758Z,2.60
2023-11-24T00:34:05.562Z,2.10
2023-11-24T00:36:37.949Z,2.00
2023-11-24T00:39:09.571Z,1.90
2023-11-24T00:41:41.723Z,1.60
2023-11-24T00:44:13.287Z,1.10
2023-11-24T00:46:44.864Z,1.10
2023-11-24T00:49:16.435Z,1.90
2023-11-24T00:51:48.199Z,1.10
2023-11-24T00:54:19.775Z,1.40
2023-11-24T00:56:51.291Z,1.60
2023-11-24T00:59:23.252Z,4.20
2023-11-24T01:01:54.735Z,5.60
2023-11-24T01:04:26.681Z,2.80
2023-11-24T01:06:58.469Z,5.80
2023-11-24T01:09:30.476Z,4.20
2023-11-24T01:12:02.175Z,5.50
2023-11-24T01:14:33.671Z,7.40
2023-11-24T01:17:05.831Z,5.10
2023-11-24T01:19:38.479Z,2.60
2023-11-24T01:22:10.565Z,3.00
2023-11-24T01:24:42.334Z,2.60
2023-11-24T01:27:13.943Z,2.10
2023-11-24T01:29:45.434Z,2.00
2023-11-24T01:32:16.855Z,2.40
2023-11-24T01:34:48.582Z,2.60
2023-11-24T01:37:20.166Z,2.40
2023-11-24T01:39:52.042Z,2.00
2023-11-24T01:42:23.826Z,2.30
2023-11-24T01:44:55.664Z,2.10
2023-11-24T01:47:27.155Z,1.50
2023-11-24T01:49:58.865Z,2.00
2023-11-24T01:52:31.223Z,1.80
2023-11-24T01:55:05.624Z,2.50
2023-11-24T01:57:41.162Z,3.00
2023-11-24T02:00:15.283Z,2.60
2023-11-24T02:02:46.901Z,3.00
2023-11-24T02:05:19.341Z,3.80
2023-11-24T02:07:51.701Z,4.10
2023-11-24T02:10:24.134Z,3.50
2023-11-24T02:12:55.697Z,2.90
2023-11-24T02:15:27.262Z,3.30
2023-11-24T02:17:58.829Z,3.40
2023-11-24T02:20:34.556Z,3.30
2023-11-24T02:23:06.043Z,4.00
2023-11-24T02:25:37.602Z,2.70
2023-11-24T02:28:09.364Z,3.50
2023-11-24T02:30:41.192Z,3.30
2023-11-24T02:33:12.886Z,2.90
2023-11-24T02:35:45.010Z,3.60
2023-11-24T02:38:16.543Z,2.50
2023-11-24T02:40:48.937Z,2.30
2023-11-24T02:43:21.207Z,2.30
2023-11-24T02:45:52.748Z,2.30
2023-11-24T02:48:24.474Z,2.50
2023-11-24T02:50:56.049Z,2.00
2023-11-24T02:53:27.495Z,3.10
2023-11-24T02:55:59.175Z,2.20
2023-11-24T02:58:31.132Z,1.80
2023-11-24T03:01:02.775Z,2.50
2023-11-24T03:03:34.317Z,3.00
2023-11-24T03:06:06.948Z,5.40
2023-11-24T03:08:39.232Z,3.70
2023-11-24T03:11:11.200Z,3.00
2023-11-24T03:13:42.614Z,4.40
2023-11-24T03:16:14.103Z,2.70
2023-11-24T03:18:45.885Z,2.20
2023-11-24T03:21:17.414Z,2.10
2023-11-24T03:23:49.365Z,2.30
2023-11-24T03:26:20.825Z,1.90
2023-11-24T03:28:52.325Z,1.70
2023-11-24T03:31:23.832Z,2.20
2023-11-24T03:33:55.620Z,2.40
2023-11-24T03:36:27.245Z,2.00
2023-11-24T03:38:58.734Z,2.70
2023-11-24T03:41:30.231Z,2.90
2023-11-24T03:44:01.726Z,2.10
2023-11-24T03:46:33.195Z,3.10
2023-11-24T03:49:05.530Z,2.00
2023-11-24T03:51:37.065Z,2.00
2023-11-24T03:54:08.780Z,2.40
2023-11-24T03:56:40.308Z,2.10
2023-11-24T03:59:11.773Z,1.40
2023-11-24T04:01:43.408Z,1.90
2023-11-24T04:04:15.072Z,2.30
2023-11-24T04:06:46.704Z,2.00
2023-11-24T04:09:18.686Z,2.10
2023-11-24T04:11:50.244Z,2.60
2023-11-24T04:14:21.632Z,2.40
2023-11-24T04:16:53.166Z,1.60
2023-11-24T04:19:24.748Z,2.30
2023-11-24T04:21:56.438Z,2.00
2023-11-24T04:24:28.177Z,1.60
2023-11-24T04:26:59.996Z,1.90
2023-11-24T04:29:31.743Z,2.30
2023-11-24T04:32:03.292Z,1.80
2023-11-24T04:34:34.792Z,1.50
2023-11-24T04:37:07.007Z,1.90
2023-11-24T04:39:38.658Z,1.80
2023-11-24T04:42:10.376Z,2.20
2023-11-24T04:44:42.372Z,1.60
2023-11-24T04:47:13.868Z,2.10
2023-11-24T04:49:45.397Z,1.70
2023-11-24T04:52:16.975Z,1.70
2023-11-24T04:54:48.474Z,2.00
2023-11-24T04:57:20.048Z,1.20
2023-11-24T04:59:51.529Z,0.80
2023-11-24T05:02:23.112Z,1.50
2023-11-24T05:04:56.093Z,1.80
2023-11-24T05:07:27.745Z,1.60
2023-11-24T05:09:59.233Z,1.80
2023-11-24T05:12:30.824Z,1.40
2023-11-24T05:15:02.310Z,1.40
2023-11-24T05:17:33.860Z,1.30
2023-11-24T05:20:07.014Z,1.70
2023-11-24T05:22:38.610Z,1.60
2023-11-24T05:25:11.655Z,3.70
2023-11-24T05:27:43.294Z,5.10
2023-11-24T05:30:16.952Z,4.10
2023-11-24T05:32:49.047Z,2.40
2023-11-24T05:35:20.769Z,2.50
2023-11-24T05:37:52.192Z,3.20
2023-11-24T05:40:24.665Z,2.90
2023-11-24T05:42:56.793Z,3.20
2023-11-24T05:45:30.929Z,3.40
2023-11-24T05:48:03.041Z,2.50
2023-11-24T05:50:35.122Z,3.70
2023-11-24T05:53:06.544Z,2.60
2023-11-24T05:55:38.044Z,2.40
2023-11-24T05:58:09.724Z,1.90
2023-11-24T06:00:41.977Z,2.00
2023-11-24T06:03:13.540Z,1.80
2023-11-24T06:05:45.218Z,2.60
2023-11-24T06:08:17.028Z,1.60
2023-11-24T06:10:49.141Z,2.20
2023-11-24T06:13:20.812Z,1.80
2023-11-24T06:15:52.422Z,2.10
2023-11-24T06:18:24.100Z,1.60
2023-11-24T06:20:55.560Z,1.50
2023-11-24T06:23:27.040Z,1.10
2023-11-24T06:25:58.586Z,1.60
2023-11-24T06:28:30.292Z,1.50
2023-11-24T06:31:02.013Z,1.90
2023-11-24T06:33:33.851Z,1.50
2023-11-24T06:36:05.861Z,1.40
2023-11-24T06:38:37.390Z,1.50
2023-11-24T06:41:10.238Z,1.60
2023-11-24T06:43:41.696Z,2.50
2023-11-24T06:46:13.978Z,2.40
2023-11-24T06:48:45.711Z,3.10
2023-11-24T06:51:17.181Z,2.20
2023-11-24T06:53:48.718Z,1.90
2023-11-24T06:56:20.583Z,1.30
2023-11-24T06:58:55.600Z,2.20
2023-11-24T07:01:34.740Z,2.70
2023-11-24T07:04:07.397Z,2.40
2023-11-24T07:06:38.979Z,1.80
2023-11-24T07:09:13.134Z,1.80
2023-11-24T07:12:34.795Z,1.80
2023-11-24T07:15:07.721Z,2.30
2023-11-24T07:17:39.352Z,1.60
2023-11-24T07:20:13.249Z,1.50
2023-11-24T07:22:45.331Z,1.50
2023-11-24T07:25:17.601Z,1.10
2023-11-24T07:27:51.796Z,1.30
2023-11-24T07:30:24.061Z,1.20
2023-11-24T07:32:55.789Z,1.40
2023-11-24T07:35:27.369Z,1.40
2023-11-24T07:37:59.016Z,1.50
2023-11-24T07:40:31.568Z,1.40
2023-11-24T07:43:03.026Z,1.10
2023-11-24T07:45:34.484Z,1.50
2023-11-24T07:48:06.774Z,1.30
2023-11-24T07:50:39.631Z,1.20
2023-11-24T07:53:14.856Z,1.60
2023-11-24T07:55:47.003Z,1.50
2023-11-24T07:58:20.544Z,1.50
2023-11-24T08:00:52.097Z,3.80
2023-11-24T08:03:24.008Z,3.80
2023-11-24T08:05:55.555Z,5.20
2023-11-24T08:08:27.089Z,4.00
2023-11-24T08:10:58.507Z,3.00
2023-11-24T08:13:30.309Z,2.10
2023-11-24T08:16:03.421Z,2.10
2023-11-24T08:18:36.945Z,1.90
2023-11-24T08:21:10.263Z,2.50
2023-11-24T08:23:42.725Z,2.90
2023-11-24T08:26:18.597Z,2.10
2023-11-24T08:28:50.995Z,2.50
2023-11-24T08:31:23.428Z,4.70
2023-11-24T08:33:55.152Z,1.90
2023-11-24T08:36:27.864Z,1.30
2023-11-24T08:38:59.317Z,1.90
2023-11-24T08:41:38.156Z,1.80
2023-11-24T08:44:13.333Z,1.40
2023-11-24T08:46:46.000Z,1.20
2023-11-24T08:49:17.596Z,1.90
2023-11-24T08:51:49.177Z,2.00
2023-11-24T08:54:22.048Z,1.70
2023-11-24T08:56:53.649Z,1.60
2023-11-24T08:59:25.304Z,1.50
2023-11-24T09:01:57.248Z,1.20
2023-11-24T09:04:31.624Z,1.60
2023-11-24T09:07:04.611Z,1.70
2023-11-24T09:09:36.214Z,1.40
2023-11-24T09:12:08.814Z,1.00
2023-11-24T09:14:41.852Z,1.40
2023-11-24T09:17:14.307Z,1.10
2023-11-24T09:19:45.873Z,1.00
2023-11-24T09:22:17.371Z,0.90
2023-11-24T09:24:49.845Z,0.90
2023-11-24T09:27:22.790Z,0.70
2023-11-24T09:29:54.558Z,1.40
2023-11-24T09:32:26.926Z,1.60
2023-11-24T09:34:58.570Z,1.50
2023-11-24T09:37:30.197Z,1.70
2023-11-24T09:40:01.656Z,1.90
2023-11-24T09:42:45.185Z,3.30
2023-11-24T09:47:51.072Z,2.80
2023-11-24T09:50:26.468Z,1.60
2023-11-24T09:53:00.157Z,1.50
2023-11-24T09:55:31.915Z,1.20
2023-11-24T09:58:04.046Z,2.80
2023-11-24T10:00:35.744Z,2.90
2023-11-24T10:03:09.123Z,1.90
2023-11-24T10:05:40.700Z,1.50
2023-11-24T10:08:13.738Z,1.20
2023-11-24T10:10:45.237Z,12.20
2023-11-24T10:13:17.054Z,20.50
2023-11-24T10:15:54.744Z,7.40
2023-11-24T10:18:29.189Z,3.90
2023-11-24T10:21:01.475Z,1.80
2023-11-24T10:23:33.358Z,1.60
2023-11-24T10:26:15.325Z,1.40
2023-11-24T10:28:47.475Z,0.90
2023-11-24T10:31:20.970Z,1.00
2023-11-24T10:33:53.136Z,1.40
2023-11-24T10:36:26.849Z,1.00
2023-11-24T10:39:07.596Z,1.20
2023-11-24T10:41:44.649Z,1.10
2023-11-24T10:44:19.564Z,1.00
2023-11-24T10:46:53.060Z,0.80
2023-11-24T10:49:32.287Z,0.70
2023-11-24T10:52:11.679Z,0.80
2023-11-24T10:54:51.601Z,0.70
2023-11-24T10:57:26.921Z,0.60
2023-11-24T11:00:00.294Z,0.40
2023-11-24T11:02:32.528Z,0.30
2023-11-24T11:05:18.382Z,0.60
2023-11-24T11:08:04.765Z,0.80
2023-11-24T11:10:47.073Z,0.50
2023-11-24T11:13:20.992Z,0.60
2023-11-24T11:15:55.800Z,0.90
2023-11-24T11:18:29.070Z,1.00
2023-11-24T11:21:11.494Z,0.80
2023-11-24T11:23:43.586Z,1.50
2023-11-24T11:26:49.889Z,2.60
2023-11-24T11:29:24.750Z,1.50
2023-11-24T11:31:57.948Z,1.50
2023-11-24T11:34:33.410Z,1.50
2023-11-24T11:37:08.452Z,1.90
2023-11-24T11:39:55.244Z,1.60
2023-11-24T11:42:33.831Z,2.30
2023-11-24T11:45:17.231Z,1.40
2023-11-24T11:47:55.182Z,1.30
2023-11-24T11:50:26.862Z,1.90
2023-11-24T11:53:02.186Z,1.70
2023-11-24T11:55:34.595Z,1.70
2023-11-24T11:58:07.574Z,1.50
2023-11-24T12:00:41.575Z,1.20
2023-11-24T12:03:14.682Z,1.20
2023-11-24T12:05:48.403Z,1.50
2023-11-24T12:08:20.889Z,1.50
2023-11-24T12:10:52.697Z,1.90
2023-11-24T12:13:25.816Z,1.60
2023-11-24T12:16:00.937Z,1.70
2023-11-24T12:18:32.707Z,2.20
2023-11-24T12:21:04.403Z,1.60
2023-11-24T12:23:36.804Z,1.70
2023-11-24T12:26:08.748Z,1.10
2023-11-24T12:28:44.530Z,1.60
2023-11-24T12:31:16.469Z,3.10
2023-11-24T12:33:53.385Z,2.10
2023-11-24T12:36:25.663Z,2.20
2023-11-24T12:38:57.181Z,2.00
2023-11-24T12:41:28.791Z,3.10
2023-11-24T12:44:00.837Z,3.10
2023-11-24T12:46:34.451Z,2.30
2023-11-24T12:49:06.983Z,2.40
2023-11-24T12:51:42.263Z,1.70
2023-11-24T12:54:14.315Z,1.10
2023-11-24T12:56:45.800Z,2.20
2023-11-24T12:59:19.222Z,2.30
2023-11-24T13:01:51.996Z,1.90
2023-11-24T13:04:24.977Z,2.60
2023-11-24T13:06:57.003Z,1.80
2023-11-24T13:09:30.069Z,1.50
2023-11-24T13:12:09.643Z,1.50
2023-11-24T13:14:47.368Z,1.50
2023-11-24T13:17:22.014Z,1.20
2023-11-24T13:19:53.953Z,1.60
2023-11-24T13:22:25.629Z,2.60
2023-11-24T13:24:57.152Z,6.60
2023-11-24T13:27:30.257Z,6.40
2023-11-24T13:30:02.082Z,4.90
2023-11-24T13:32:34.534Z,5.00
2023-11-24T13:35:07.958Z,3.70
2023-11-24T13:37:39.867Z,3.70
2023-11-24T13:40:13.808Z,2.70
2023-11-24T13:42:46.249Z,2.60
2023-11-24T13:45:18.508Z,3.30
2023-11-24T13:47:51.057Z,4.00
2023-11-24T13:50:23.202Z,2.60
2023-11-24T13:52:58.170Z,2.50
2023-11-24T13:55:35.342Z,2.60
2023-11-24T13:58:07.615Z,3.30
2023-11-24T14:00:39.372Z,2.90
2023-11-24T14:03:11.242Z,2.50
2023-11-24T14:05:44.306Z,1.80
2023-11-24T14:08:16.889Z,2.90
2023-11-24T14:10:49.474Z,4.30
2023-11-24T14:13:21.283Z,4.30
2023-11-24T14:15:53.088Z,4.70
2023-11-24T14:18:24.751Z,5.00
2023-11-24T14:20:57.928Z,5.80
2023-11-24T14:23:30.364Z,5.90
2023-11-24T14:26:01.811Z,4.00
2023-11-24T14:28:33.520Z,3.10
2023-11-24T14:31:06.498Z,2.50
2023-11-24T14:33:41.617Z,6.90
2023-11-24T14:36:15.418Z,5.90
2023-11-24T14:38:49.579Z,3.90
2023-11-24T14:41:21.117Z,4.20
2023-11-24T14:43:55.068Z,2.40
2023-11-24T14:46:30.069Z,2.40
2023-11-24T14:49:04.706Z,3.30
2023-11-24T14:51:39.618Z,2.20
2023-11-24T14:54:11.458Z,2.20
2023-11-24T14:56:46.800Z,1.90
2023-11-24T14:59:20.652Z,2.30
2023-11-24T15:01:59.336Z,2.80
2023-11-24T15:04:32.752Z,2.90
2023-11-24T15:07:06.307Z,2.30
2023-11-24T15:09:43.121Z,2.50
2023-11-24T15:12:14.851Z,3.40
2023-11-24T15:14:48.287Z,3.00
2023-11-24T15:17:19.776Z,3.40
2023-11-24T15:19:55.187Z,3.60
2023-11-24T15:22:28.284Z,3.50
2023-11-24T15:25:00.540Z,2.70
2023-11-24T15:27:32.355Z,3.10
2023-11-24T15:30:04.003Z,3.00
2023-11-24T15:32:35.815Z,4.00
2023-11-24T15:35:08.170Z,2.90
2023-11-24T15:37:39.565Z,3.00
2023-11-24T15:40:20.741Z,2.90
2023-11-24T15:42:56.351Z,3.40
2023-11-24T15:45:29.095Z,3.50
2023-11-24T15:48:07.740Z,3.80
2023-11-24T15:50:40.848Z,4.00
2023-11-24T15:53:14.630Z,3.40
2023-11-24T15:55:47.557Z,2.90
2023-11-24T15:58:24.682Z,2.70
2023-11-24T16:03:30.249Z,3.30
2023-11-24T16:06:06.232Z,3.30
2023-11-24T16:08:46.292Z,3.90
2023-11-24T16:11:22.400Z,3.50
2023-11-24T16:13:54.209Z,2.10
2023-11-24T16:16:28.020Z,3.10
2023-11-24T16:18:59.613Z,2.80
2023-11-24T16:21:31.783Z,2.90
2023-11-24T16:24:03.997Z,2.50
2023-11-24T16:26:35.463Z,2.20
2023-11-24T16:29:07.281Z,2.30
2023-11-24T16:31:41.327Z,2.30
2023-11-24T16:34:13.109Z,2.80
2023-11-24T16:36:46.057Z,2.10
2023-11-24T16:39:20.550Z,2.40
2023-11-24T16:41:52.885Z,2.10
2023-11-24T16:44:24.858Z,2.80
2023-11-24T16:47:01.060Z,2.60
2023-11-24T16:49:32.887Z,3.10
2023-11-24T16:52:04.921Z,2.20
2023-11-24T16:54:37.446Z,1.80
2023-11-24T16:57:10.447Z,2.20
2023-11-24T16:59:43.287Z,2.30
2023-11-24T17:02:15.515Z,2.10
2023-11-24T17:04:48.620Z,2.40
2023-11-24T17:07:20.496Z,1.90
2023-11-24T17:09:53.307Z,2.70
2023-11-24T17:12:26.004Z,2.30
2023-11-24T17:14:58.100Z,2.10
2023-11-24T17:17:29.848Z,2.40
2023-11-24T17:20:01.577Z,2.20
2023-11-24T17:22:33.593Z,2.50
2023-11-24T17:25:05.559Z,2.00
2023-11-24T17:27:37.607Z,3.40
2023-11-24T17:30:14.107Z,3.00
2023-11-24T17:32:46.289Z,2.90
2023-11-24T17:35:19.274Z,1.90
2023-11-24T17:37:51.119Z,2.40
2023-11-24T17:40:23.552Z,5.20
2023-11-24T17:42:55.293Z,2.40
2023-11-24T17:45:27.294Z,4.30
2023-11-24T17:47:59.498Z,2.30
2023-11-24T17:50:31.127Z,2.70
2023-11-24T17:53:03.099Z,3.20
2023-11-24T17:55:35.670Z,2.20
2023-11-24T17:58:07.504Z,2.20
2023-11-24T18:00:41.114Z,1.50
2023-11-24T18:03:13.016Z,2.10
2023-11-24T18:05:44.824Z,2.00
2023-11-24T18:08:21.972Z,1.90
2023-11-24T18:10:53.793Z,3.30
2023-11-24T18:13:25.448Z,2.30
2023-11-24T18:15:57.304Z,2.30
2023-11-24T18:18:29.414Z,3.40
2023-11-24T18:21:02.132Z,2.70
2023-11-24T18:23:35.897Z,1.90
2023-11-24T18:26:08.681Z,1.40
2023-11-24T18:28:40.352Z,1.50
2023-11-24T18:31:13.125Z,1.20
2023-11-24T18:33:45.386Z,1.10
2023-11-24T18:36:17.187Z,0.80
2023-11-24T18:38:48.913Z,1.20
2023-11-24T18:41:20.577Z,1.10
2023-11-24T18:43:52.624Z,1.10
2023-11-24T18:46:24.341Z,1.80
2023-11-24T18:48:56.031Z,1.30
2023-11-24T18:51:29.077Z,2.10
2023-11-24T18:54:00.691Z,2.00
2023-11-24T18:56:32.297Z,1.80
2023-11-24T18:59:03.980Z,1.40
2023-11-24T19:01:35.671Z,1.00
2023-11-24T19:04:08.433Z,1.30
2023-11-24T19:06:40.837Z,1.10
2023-11-24T19:09:16.959Z,1.90
2023-11-24T19:11:49.210Z,1.30
2023-11-24T19:14:21.129Z,1.50
2023-11-24T19:16:53.143Z,1.70
2023-11-24T19:19:24.959Z,1.80
2023-11-24T19:21:56.642Z,1.50
2023-11-24T19:24:29.132Z,1.70
2023-11-24T19:27:01.287Z,1.80
2023-11-24T19:29:32.947Z,1.70
2023-11-24T19:32:05.185Z,1.40
2023-11-24T19:34:36.927Z,1.70
2023-11-24T19:37:09.798Z,1.50
2023-11-24T19:39:43.289Z,1.20
2023-11-24T19:42:15.067Z,1.30
2023-11-24T19:44:47.921Z,1.50
2023-11-24T19:47:19.872Z,0.80
2023-11-24T19:49:52.448Z,1.80
2023-11-24T19:52:26.462Z,2.30
2023-11-24T19:54:58.483Z,3.20
2023-11-24T19:57:32.896Z,2.00
2023-11-24T20:00:09.758Z,1.50
2023-11-24T20:02:41.945Z,2.00
2023-11-24T20:05:14.218Z,1.60
2023-11-24T20:07:46.077Z,1.80
2023-11-24T20:10:19.217Z,1.80
2023-11-24T20:12:52.919Z,1.80
2023-11-24T20:15:26.637Z,1.40
2023-11-24T20:18:01.293Z,1.40
2023-11-24T20:20:34.956Z,1.30
2023-11-24T20:23:07.509Z,1.50
2023-11-24T20:25:39.268Z,1.30
2023-11-24T20:28:11.349Z,1.30
2023-11-24T20:30:44.295Z,1.10
2023-11-24T20:33:18.676Z,1.00
2023-11-24T20:35:51.088Z,0.90
2023-11-24T20:38:23.063Z,0.80
2023-11-24T20:40:56.543Z,1.10
2023-11-24T20:43:30.379Z,0.70
2023-11-24T20:46:04.603Z,1.10
2023-11-24T20:48:39.079Z,1.00
2023-11-24T20:51:12.649Z,0.40
2023-11-24T20:53:44.375Z,1.10
2023-11-24T20:56:16.250Z,1.70
2023-11-24T20:58:48.765Z,2.00
2023-11-24T21:01:22.847Z,2.10
2023-11-24T21:03:54.718Z,1.70
2023-11-24T21:06:26.843Z,2.60
2023-11-24T21:09:04.433Z,1.60
2023-11-24T21:11:37.737Z,1.30
2023-11-24T21:14:09.934Z,1.90
2023-11-24T21:16:43.098Z,5.30
2023-11-24T21:19:15.584Z,1.90
2023-11-24T21:21:47.440Z,1.70
2023-11-24T21:24:19.189Z,1.60
2023-11-24T21:26:51.333Z,1.60
2023-11-24T21:29:23.236Z,0.90
2023-11-24T21:31:56.550Z,1.10
2023-11-24T21:34:28.378Z,0.70
2023-11-24T21:37:00.383Z,1.50
2023-11-24T21:39:32.066Z,0.90
2023-11-24T21:42:03.688Z,1.30
2023-11-24T21:44:35.399Z,1.40
2023-11-24T21:47:07.701Z,0.80
2023-11-24T21:49:40.560Z,0.90
2023-11-24T21:52:12.295Z,1.10
2023-11-24T21:54:48.165Z,1.10
2023-11-24T21:57:21.260Z,0.80
2023-11-24T21:59:52.884Z,1.10
2023-11-24T22:02:28.309Z,1.00
2023-11-24T22:05:02.209Z,1.80
2023-11-24T22:07:34.980Z,1.30
2023-11-24T22:10:08.349Z,1.30
2023-11-24T22:12:40.207Z,1.40
2023-11-24T22:15:13.196Z,0.90
2023-11-24T22:17:45.345Z,0.90
2023-11-24T22:20:20.148Z,0.90
2023-11-24T22:22:52.129Z,1.00
2023-11-24T22:25:23.850Z,1.00
2023-11-24T22:27:55.657Z,0.80
2023-11-24T22:30:27.406Z,0.60
2023-11-24T22:32:59.069Z,1.00
2023-11-24T22:35:30.729Z,1.10
2023-11-24T22:38:02.848Z,1.50
2023-11-24T22:40:34.476Z,1.30
2023-11-24T22:43:06.237Z,1.10
2023-11-24T22:45:38.027Z,2.10
2023-11-24T22:48:10.617Z,2.10
2023-11-24T22:50:42.719Z,2.10
2023-11-24T22:53:14.463Z,2.50
2023-11-24T22:55:46.091Z,2.00
2023-11-24T22:58:19.708Z,2.10
2023-11-24T23:00:54.424Z,2.00
2023-11-24T23:03:27.701Z,1.60
2023-11-24T23:05:59.452Z,1.80
2023-11-24T23:08:32.122Z,1.60
2023-11-24T23:11:05.386Z,2.40
2023-11-24T23:13:37.046Z,1.50
2023-11-24T23:16:11.558Z,1.30
2023-11-24T23:18:45.769Z,1.90
2023-11-24T23:21:21.004Z,2.00
2023-11-24T23:23:56.543Z,1.50
2023-11-24T23:26:28.357Z,2.10
2023-11-24T23:29:01.276Z,2.20
2023-11-24T23:31:33.809Z,1.80
2023-11-24T23:34:06.741Z,1.50
2023-11-24T23:36:38.892Z,1.60
2023-11-24T23:39:11.275Z,2.20
2023-11-24T23:41:42.948Z,2.60
2023-11-24T23:44:15.584Z,2.90
2023-11-24T23:46:47.405Z,1.70
2023-11-24T23:49:19.217Z,1.90
2023-11-24T23:51:50.909Z,3.40
2023-11-24T23:54:24.125Z,2.60
2023-11-24T23:56:55.901Z,2.60
2023-11-24T23:59:27.721Z,1.70
